sensor_id;sensor_type;location;lat;lon;timestamp;temperature;humidity
7846;DHT22;3968;51.424;6.788;2024-01-25T00:00:50;9.90;99.90
7846;DHT22;3968;51.424;6.788;2024-01-25T00:03:15;9.90;99.90
7846;DHT22;3968;51.424;6.788;2024-01-25T00:05:41;9.90;99.90
7846;DHT22;3968;51.424;6.788;2024-01-25T00:08:07;9.90;99.90
7846;DHT22;3968;51.424;6.788;2024-01-25T00:10:32;9.90;99.90
7846;DHT22;3968;51.424;6.788;2024-01-25T00:12:58;9.90;99.90
7846;DHT22;3968;51.424;6.788;2024-01-25T00:15:24;9.90;99.90
7846;DHT22;3968;51.424;6.788;2024-01-25T00:17:49;9.80;99.90
7846;DHT22;3968;51.424;6.788;2024-01-25T00:20:15;9.90;99.90
7846;DHT22;3968;51.424;6.788;2024-01-25T00:22:41;9.80;99.90
7846;DHT22;3968;51.424;6.788;2024-01-25T00:25:07;9.80;99.90
7846;DHT22;3968;51.424;6.788;2024-01-25T00:27:33;9.80;99.90
7846;DHT22;3968;51.424;6.788;2024-01-25T00:29:58;9.80;99.90
7846;DHT22;3968;51.424;6.788;2024-01-25T00:32:24;9.80;99.90
7846;DHT22;3968;51.424;6.788;2024-01-25T00:34:49;9.80;99.90
7846;DHT22;3968;51.424;6.788;2024-01-25T00:37:16;9.80;99.90
7846;DHT22;3968;51.424;6.788;2024-01-25T00:39:42;9.80;99.90
7846;DHT22;3968;51.424;6.788;2024-01-25T00:42:08;9.80;99.90
7846;DHT22;3968;51.424;6.788;2024-01-25T00:44:37;9.80;99.90
7846;DHT22;3968;51.424;6.788;2024-01-25T00:47:03;9.80;99.90
7846;DHT22;3968;51.424;6.788;2024-01-25T00:49:29;9.70;99.90
7846;DHT22;3968;51.424;6.788;2024-01-25T00:51:59;9.70;99.90
7846;DHT22;3968;51.424;6.788;2024-01-25T00:54:25;9.70;99.90
7846;DHT22;3968;51.424;6.788;2024-01-25T00:56:51;9.70;99.90
7846;DHT22;3968;51.424;6.788;2024-01-25T00:59:19;9.70;99.90
7846;DHT22;3968;51.424;6.788;2024-01-25T01:01:46;9.70;99.90
7846;DHT22;3968;51.424;6.788;2024-01-25T01:04:12;9.60;99.90
7846;DHT22;3968;51.424;6.788;2024-01-25T01:06:38;9.60;99.90
7846;DHT22;3968;51.424;6.788;2024-01-25T01:09:04;9.60;99.90
7846;DHT22;3968;51.424;6.788;2024-01-25T01:11:30;9.60;99.90
7846;DHT22;3968;51.424;6.788;2024-01-25T01:13:56;9.50;99.90
7846;DHT22;3968;51.424;6.788;2024-01-25T01:16:21;9.50;99.90
7846;DHT22;3968;51.424;6.788;2024-01-25T01:18:47;9.50;99.90
7846;DHT22;3968;51.424;6.788;2024-01-25T01:21:12;9.50;99.90
7846;DHT22;3968;51.424;6.788;2024-01-25T01:23:38;9.50;99.90
7846;DHT22;3968;51.424;6.788;2024-01-25T01:26:04;9.40;99.90
7846;DHT22;3968;51.424;6.788;2024-01-25T01:28:30;9.40;99.90
7846;DHT22;3968;51.424;6.788;2024-01-25T01:30:55;9.40;99.90
7846;DHT22;3968;51.424;6.788;2024-01-25T01:33:21;9.40;99.90
7846;DHT22;3968;51.424;6.788;2024-01-25T01:35:46;9.40;99.90
7846;DHT22;3968;51.424;6.788;2024-01-25T01:38:12;9.40;99.90
7846;DHT22;3968;51.424;6.788;2024-01-25T01:40:38;9.30;99.90
7846;DHT22;3968;51.424;6.788;2024-01-25T01:43:03;9.30;99.90
7846;DHT22;3968;51.424;6.788;2024-01-25T01:45:29;9.30;99.90
7846;DHT22;3968;51.424;6.788;2024-01-25T01:47:56;9.30;99.90
7846;DHT22;3968;51.424;6.788;2024-01-25T01:50:22;9.30;99.90
7846;DHT22;3968;51.424;6.788;2024-01-25T01:52:49;9.20;99.90
7846;DHT22;3968;51.424;6.788;2024-01-25T01:55:15;9.20;99.90
7846;DHT22;3968;51.424;6.788;2024-01-25T01:57:41;9.20;99.90
7846;DHT22;3968;51.424;6.788;2024-01-25T02:00:10;9.20;99.90
7846;DHT22;3968;51.424;6.788;2024-01-25T02:02:35;9.20;99.90
7846;DHT22;3968;51.424;6.788;2024-01-25T02:05:01;9.20;99.90
7846;DHT22;3968;51.424;6.788;2024-01-25T02:07:28;9.20;99.90
7846;DHT22;3968;51.424;6.788;2024-01-25T02:09:53;9.20;99.90
7846;DHT22;3968;51.424;6.788;2024-01-25T02:12:19;9.20;99.90
7846;DHT22;3968;51.424;6.788;2024-01-25T02:14:45;9.10;99.90
7846;DHT22;3968;51.424;6.788;2024-01-25T02:17:11;9.20;99.90
7846;DHT22;3968;51.424;6.788;2024-01-25T02:19:36;9.20;99.90
7846;DHT22;3968;51.424;6.788;2024-01-25T02:22:04;9.20;99.90
7846;DHT22;3968;51.424;6.788;2024-01-25T02:24:30;9.20;99.90
7846;DHT22;3968;51.424;6.788;2024-01-25T02:26:56;9.20;99.90
7846;DHT22;3968;51.424;6.788;2024-01-25T02:29:22;9.20;99.90
7846;DHT22;3968;51.424;6.788;2024-01-25T02:31:48;9.20;99.90
7846;DHT22;3968;51.424;6.788;2024-01-25T02:34:13;9.20;99.90
7846;DHT22;3968;51.424;6.788;2024-01-25T02:36:39;9.20;99.90
7846;DHT22;3968;51.424;6.788;2024-01-25T02:39:04;9.10;99.90
7846;DHT22;3968;51.424;6.788;2024-01-25T02:41:31;9.10;99.90
7846;DHT22;3968;51.424;6.788;2024-01-25T02:43:57;9.10;99.90
7846;DHT22;3968;51.424;6.788;2024-01-25T02:46:23;9.10;99.90
7846;DHT22;3968;51.424;6.788;2024-01-25T02:48:49;9.00;99.90
7846;DHT22;3968;51.424;6.788;2024-01-25T02:51:14;9.00;99.90
7846;DHT22;3968;51.424;6.788;2024-01-25T02:53:40;9.00;99.90
7846;DHT22;3968;51.424;6.788;2024-01-25T02:56:06;9.00;99.90
7846;DHT22;3968;51.424;6.788;2024-01-25T02:58:33;9.00;99.90
7846;DHT22;3968;51.424;6.788;2024-01-25T03:00:58;9.00;99.90
7846;DHT22;3968;51.424;6.788;2024-01-25T03:03:27;8.90;99.90
7846;DHT22;3968;51.424;6.788;2024-01-25T03:05:52;8.90;99.90
7846;DHT22;3968;51.424;6.788;2024-01-25T03:08:18;8.90;99.90
7846;DHT22;3968;51.424;6.788;2024-01-25T03:10:43;8.80;99.90
7846;DHT22;3968;51.424;6.788;2024-01-25T03:13:09;8.80;99.90
7846;DHT22;3968;51.424;6.788;2024-01-25T03:15:35;8.80;99.90
7846;DHT22;3968;51.424;6.788;2024-01-25T03:18:00;8.70;99.90
7846;DHT22;3968;51.424;6.788;2024-01-25T03:20:26;8.70;99.90
7846;DHT22;3968;51.424;6.788;2024-01-25T03:22:51;8.60;99.90
7846;DHT22;3968;51.424;6.788;2024-01-25T03:25:17;8.60;99.90
7846;DHT22;3968;51.424;6.788;2024-01-25T03:27:43;8.60;99.90
7846;DHT22;3968;51.424;6.788;2024-01-25T03:30:09;8.60;99.90
7846;DHT22;3968;51.424;6.788;2024-01-25T03:32:35;8.50;99.90
7846;DHT22;3968;51.424;6.788;2024-01-25T03:35:01;8.50;99.90
7846;DHT22;3968;51.424;6.788;2024-01-25T03:37:27;8.50;99.90
7846;DHT22;3968;51.424;6.788;2024-01-25T03:39:52;8.50;99.90
7846;DHT22;3968;51.424;6.788;2024-01-25T03:42:18;8.50;99.90
7846;DHT22;3968;51.424;6.788;2024-01-25T03:44:43;8.40;99.90
7846;DHT22;3968;51.424;6.788;2024-01-25T03:47:10;8.40;99.90
7846;DHT22;3968;51.424;6.788;2024-01-25T03:49:36;8.30;99.90
7846;DHT22;3968;51.424;6.788;2024-01-25T03:52:02;8.30;99.90
7846;DHT22;3968;51.424;6.788;2024-01-25T03:54:28;8.30;99.90
7846;DHT22;3968;51.424;6.788;2024-01-25T03:56:53;8.20;99.90
7846;DHT22;3968;51.424;6.788;2024-01-25T03:59:19;8.30;99.90
7846;DHT22;3968;51.424;6.788;2024-01-25T04:01:45;8.20;99.90
7846;DHT22;3968;51.424;6.788;2024-01-25T04:04:12;8.10;99.90
7846;DHT22;3968;51.424;6.788;2024-01-25T04:06:42;8.10;99.90
7846;DHT22;3968;51.424;6.788;2024-01-25T04:09:09;8.10;99.90
7846;DHT22;3968;51.424;6.788;2024-01-25T04:11:36;8.00;99.90
7846;DHT22;3968;51.424;6.788;2024-01-25T04:14:02;8.00;99.90
7846;DHT22;3968;51.424;6.788;2024-01-25T04:16:28;8.00;99.90
7846;DHT22;3968;51.424;6.788;2024-01-25T04:18:53;8.00;99.90
7846;DHT22;3968;51.424;6.788;2024-01-25T04:21:19;7.90;99.90
7846;DHT22;3968;51.424;6.788;2024-01-25T04:23:44;7.90;99.90
7846;DHT22;3968;51.424;6.788;2024-01-25T04:26:10;7.90;99.90
7846;DHT22;3968;51.424;6.788;2024-01-25T04:28:36;7.90;99.90
7846;DHT22;3968;51.424;6.788;2024-01-25T04:31:02;7.80;99.90
7846;DHT22;3968;51.424;6.788;2024-01-25T04:33:29;7.80;99.90
7846;DHT22;3968;51.424;6.788;2024-01-25T04:35:54;7.80;99.90
7846;DHT22;3968;51.424;6.788;2024-01-25T04:38:21;7.70;99.90
7846;DHT22;3968;51.424;6.788;2024-01-25T04:40:47;7.70;99.90
7846;DHT22;3968;51.424;6.788;2024-01-25T04:43:12;7.70;99.90
7846;DHT22;3968;51.424;6.788;2024-01-25T04:45:39;7.70;99.90
7846;DHT22;3968;51.424;6.788;2024-01-25T04:48:05;7.70;99.90
7846;DHT22;3968;51.424;6.788;2024-01-25T04:50:31;7.70;99.90
7846;DHT22;3968;51.424;6.788;2024-01-25T04:52:57;7.60;99.90
7846;DHT22;3968;51.424;6.788;2024-01-25T04:55:22;7.60;99.90
7846;DHT22;3968;51.424;6.788;2024-01-25T04:57:48;7.60;99.90
7846;DHT22;3968;51.424;6.788;2024-01-25T05:00:21;7.60;99.90
7846;DHT22;3968;51.424;6.788;2024-01-25T05:02:47;7.50;99.90
7846;DHT22;3968;51.424;6.788;2024-01-25T05:05:13;7.50;99.90
7846;DHT22;3968;51.424;6.788;2024-01-25T05:07:39;7.50;99.90
7846;DHT22;3968;51.424;6.788;2024-01-25T05:10:05;7.50;99.90
7846;DHT22;3968;51.424;6.788;2024-01-25T05:12:31;7.40;99.90
7846;DHT22;3968;51.424;6.788;2024-01-25T05:14:57;7.40;99.90
7846;DHT22;3968;51.424;6.788;2024-01-25T05:17:23;7.40;99.90
7846;DHT22;3968;51.424;6.788;2024-01-25T05:19:48;7.40;99.90
7846;DHT22;3968;51.424;6.788;2024-01-25T05:22:14;7.40;99.90
7846;DHT22;3968;51.424;6.788;2024-01-25T05:24:40;7.30;99.90
7846;DHT22;3968;51.424;6.788;2024-01-25T05:27:05;7.30;99.90
7846;DHT22;3968;51.424;6.788;2024-01-25T05:29:31;7.30;99.90
7846;DHT22;3968;51.424;6.788;2024-01-25T05:31:57;7.30;99.90
7846;DHT22;3968;51.424;6.788;2024-01-25T05:34:23;7.30;99.90
7846;DHT22;3968;51.424;6.788;2024-01-25T05:36:48;7.30;99.90
7846;DHT22;3968;51.424;6.788;2024-01-25T05:39:15;7.20;99.90
7846;DHT22;3968;51.424;6.788;2024-01-25T05:41:40;7.20;99.90
7846;DHT22;3968;51.424;6.788;2024-01-25T05:44:06;7.20;99.90
7846;DHT22;3968;51.424;6.788;2024-01-25T05:46:32;7.20;99.90
7846;DHT22;3968;51.424;6.788;2024-01-25T05:48:57;7.20;99.90
7846;DHT22;3968;51.424;6.788;2024-01-25T05:51:23;7.20;99.90
7846;DHT22;3968;51.424;6.788;2024-01-25T05:53:48;7.10;99.90
7846;DHT22;3968;51.424;6.788;2024-01-25T05:56:14;7.10;99.90
7846;DHT22;3968;51.424;6.788;2024-01-25T05:58:39;7.10;99.90
7846;DHT22;3968;51.424;6.788;2024-01-25T06:01:06;7.10;99.90
7846;DHT22;3968;51.424;6.788;2024-01-25T06:03:31;7.10;99.90
7846;DHT22;3968;51.424;6.788;2024-01-25T06:05:57;7.10;99.90
7846;DHT22;3968;51.424;6.788;2024-01-25T06:08:23;7.00;99.90
7846;DHT22;3968;51.424;6.788;2024-01-25T06:10:48;7.00;99.90
7846;DHT22;3968;51.424;6.788;2024-01-25T06:13:14;7.00;99.90
7846;DHT22;3968;51.424;6.788;2024-01-25T06:15:40;7.00;99.90
7846;DHT22;3968;51.424;6.788;2024-01-25T06:18:05;7.00;99.90
7846;DHT22;3968;51.424;6.788;2024-01-25T06:20:31;7.00;99.90
7846;DHT22;3968;51.424;6.788;2024-01-25T06:22:57;7.00;99.90
7846;DHT22;3968;51.424;6.788;2024-01-25T06:25:23;7.00;99.90
7846;DHT22;3968;51.424;6.788;2024-01-25T06:27:48;6.90;99.90
7846;DHT22;3968;51.424;6.788;2024-01-25T06:30:14;7.00;99.90
7846;DHT22;3968;51.424;6.788;2024-01-25T06:32:40;6.90;99.90
7846;DHT22;3968;51.424;6.788;2024-01-25T06:35:06;6.90;99.90
7846;DHT22;3968;51.424;6.788;2024-01-25T06:37:32;6.90;99.90
7846;DHT22;3968;51.424;6.788;2024-01-25T06:39:57;6.90;99.90
7846;DHT22;3968;51.424;6.788;2024-01-25T06:42:24;6.90;99.90
7846;DHT22;3968;51.424;6.788;2024-01-25T06:44:49;6.90;99.90
7846;DHT22;3968;51.424;6.788;2024-01-25T06:47:15;6.80;99.90
7846;DHT22;3968;51.424;6.788;2024-01-25T06:49:40;6.80;99.90
7846;DHT22;3968;51.424;6.788;2024-01-25T06:52:06;6.80;99.90
7846;DHT22;3968;51.424;6.788;2024-01-25T06:54:32;6.80;99.90
7846;DHT22;3968;51.424;6.788;2024-01-25T06:56:57;6.80;99.90
7846;DHT22;3968;51.424;6.788;2024-01-25T06:59:23;6.80;99.90
7846;DHT22;3968;51.424;6.788;2024-01-25T07:01:49;6.70;99.90
7846;DHT22;3968;51.424;6.788;2024-01-25T07:04:15;6.70;99.90
7846;DHT22;3968;51.424;6.788;2024-01-25T07:06:40;6.70;99.90
7846;DHT22;3968;51.424;6.788;2024-01-25T07:09:06;6.60;99.90
7846;DHT22;3968;51.424;6.788;2024-01-25T07:11:32;6.50;99.90
7846;DHT22;3968;51.424;6.788;2024-01-25T07:13:58;6.60;99.90
7846;DHT22;3968;51.424;6.788;2024-01-25T07:16:23;6.60;99.90
7846;DHT22;3968;51.424;6.788;2024-01-25T07:18:49;6.60;99.90
7846;DHT22;3968;51.424;6.788;2024-01-25T07:21:15;6.60;99.90
7846;DHT22;3968;51.424;6.788;2024-01-25T07:23:41;6.60;99.90
7846;DHT22;3968;51.424;6.788;2024-01-25T07:26:06;6.60;99.90
7846;DHT22;3968;51.424;6.788;2024-01-25T07:28:32;6.40;99.90
7846;DHT22;3968;51.424;6.788;2024-01-25T07:30:57;6.40;99.90
7846;DHT22;3968;51.424;6.788;2024-01-25T07:33:23;6.40;99.90
7846;DHT22;3968;51.424;6.788;2024-01-25T07:35:49;6.40;99.90
7846;DHT22;3968;51.424;6.788;2024-01-25T07:38:15;6.40;99.90
7846;DHT22;3968;51.424;6.788;2024-01-25T07:40:41;6.40;99.90
7846;DHT22;3968;51.424;6.788;2024-01-25T07:43:06;6.40;99.90
7846;DHT22;3968;51.424;6.788;2024-01-25T07:45:32;6.30;99.90
7846;DHT22;3968;51.424;6.788;2024-01-25T07:47:58;6.30;99.90
7846;DHT22;3968;51.424;6.788;2024-01-25T07:50:24;6.40;99.90
7846;DHT22;3968;51.424;6.788;2024-01-25T07:52:49;6.40;99.90
7846;DHT22;3968;51.424;6.788;2024-01-25T07:55:17;6.40;99.90
7846;DHT22;3968;51.424;6.788;2024-01-25T07:57:43;6.30;99.90
7846;DHT22;3968;51.424;6.788;2024-01-25T08:00:09;6.30;99.90
7846;DHT22;3968;51.424;6.788;2024-01-25T08:02:38;6.30;99.90
7846;DHT22;3968;51.424;6.788;2024-01-25T08:05:05;6.40;99.90
7846;DHT22;3968;51.424;6.788;2024-01-25T08:07:31;6.40;99.90
7846;DHT22;3968;51.424;6.788;2024-01-25T08:09:57;6.40;99.90
7846;DHT22;3968;51.424;6.788;2024-01-25T08:12:26;6.40;99.90
7846;DHT22;3968;51.424;6.788;2024-01-25T08:14:52;6.40;99.90
7846;DHT22;3968;51.424;6.788;2024-01-25T08:17:18;6.30;99.90
7846;DHT22;3968;51.424;6.788;2024-01-25T08:19:44;6.30;99.90
7846;DHT22;3968;51.424;6.788;2024-01-25T08:22:10;6.40;99.90
7846;DHT22;3968;51.424;6.788;2024-01-25T08:24:36;6.40;99.90
7846;DHT22;3968;51.424;6.788;2024-01-25T08:27:01;6.40;99.90
7846;DHT22;3968;51.424;6.788;2024-01-25T08:29:27;6.40;99.90
7846;DHT22;3968;51.424;6.788;2024-01-25T08:31:53;6.30;99.90
7846;DHT22;3968;51.424;6.788;2024-01-25T08:34:18;6.40;99.90
7846;DHT22;3968;51.424;6.788;2024-01-25T08:36:44;6.50;99.90
7846;DHT22;3968;51.424;6.788;2024-01-25T08:39:10;6.50;99.90
7846;DHT22;3968;51.424;6.788;2024-01-25T08:41:35;6.50;99.90
7846;DHT22;3968;51.424;6.788;2024-01-25T08:44:01;6.60;99.90
7846;DHT22;3968;51.424;6.788;2024-01-25T08:46:26;6.60;99.90
7846;DHT22;3968;51.424;6.788;2024-01-25T08:48:52;6.60;99.90
7846;DHT22;3968;51.424;6.788;2024-01-25T08:51:18;6.60;99.90
7846;DHT22;3968;51.424;6.788;2024-01-25T08:53:43;6.60;99.90
7846;DHT22;3968;51.424;6.788;2024-01-25T08:56:09;6.60;99.90
7846;DHT22;3968;51.424;6.788;2024-01-25T08:58:35;6.60;99.90
7846;DHT22;3968;51.424;6.788;2024-01-25T09:01:01;6.70;99.90
7846;DHT22;3968;51.424;6.788;2024-01-25T09:03:26;6.70;99.90
7846;DHT22;3968;51.424;6.788;2024-01-25T09:05:52;6.80;99.90
7846;DHT22;3968;51.424;6.788;2024-01-25T09:08:18;6.80;99.90
7846;DHT22;3968;51.424;6.788;2024-01-25T09:10:43;6.90;99.90
7846;DHT22;3968;51.424;6.788;2024-01-25T09:13:10;7.00;99.90
7846;DHT22;3968;51.424;6.788;2024-01-25T09:15:35;7.10;99.90
7846;DHT22;3968;51.424;6.788;2024-01-25T09:18:01;7.10;99.90
7846;DHT22;3968;51.424;6.788;2024-01-25T09:20:27;7.20;99.90
7846;DHT22;3968;51.424;6.788;2024-01-25T09:22:53;7.20;99.90
7846;DHT22;3968;51.424;6.788;2024-01-25T09:25:19;7.20;99.90
7846;DHT22;3968;51.424;6.788;2024-01-25T09:27:45;7.20;99.90
7846;DHT22;3968;51.424;6.788;2024-01-25T09:30:11;7.30;99.90
7846;DHT22;3968;51.424;6.788;2024-01-25T09:32:36;7.30;99.90
7846;DHT22;3968;51.424;6.788;2024-01-25T09:35:02;7.30;99.90
7846;DHT22;3968;51.424;6.788;2024-01-25T09:37:28;7.30;99.90
7846;DHT22;3968;51.424;6.788;2024-01-25T09:39:53;7.40;99.90
7846;DHT22;3968;51.424;6.788;2024-01-25T09:42:19;7.50;99.90
7846;DHT22;3968;51.424;6.788;2024-01-25T09:44:45;7.50;99.90
7846;DHT22;3968;51.424;6.788;2024-01-25T09:47:11;7.50;99.90
7846;DHT22;3968;51.424;6.788;2024-01-25T09:49:37;7.60;99.90
7846;DHT22;3968;51.424;6.788;2024-01-25T09:52:04;7.60;99.90
7846;DHT22;3968;51.424;6.788;2024-01-25T09:54:39;7.70;99.90
7846;DHT22;3968;51.424;6.788;2024-01-25T09:57:15;7.80;99.90
7846;DHT22;3968;51.424;6.788;2024-01-25T09:59:44;7.90;99.90
7846;DHT22;3968;51.424;6.788;2024-01-25T10:02:11;8.00;99.90
7846;DHT22;3968;51.424;6.788;2024-01-25T10:04:37;8.10;99.90
7846;DHT22;3968;51.424;6.788;2024-01-25T10:07:02;8.20;99.90
7846;DHT22;3968;51.424;6.788;2024-01-25T10:09:37;8.20;99.90
7846;DHT22;3968;51.424;6.788;2024-01-25T10:12:03;8.30;99.90
7846;DHT22;3968;51.424;6.788;2024-01-25T10:14:29;8.40;99.90
7846;DHT22;3968;51.424;6.788;2024-01-25T10:16:54;8.50;99.90
7846;DHT22;3968;51.424;6.788;2024-01-25T10:19:20;8.50;99.90
7846;DHT22;3968;51.424;6.788;2024-01-25T10:21:46;8.50;99.90
7846;DHT22;3968;51.424;6.788;2024-01-25T10:24:12;8.60;99.90
7846;DHT22;3968;51.424;6.788;2024-01-25T10:26:38;8.60;99.90
7846;DHT22;3968;51.424;6.788;2024-01-25T10:29:06;8.70;99.90
7846;DHT22;3968;51.424;6.788;2024-01-25T10:31:32;8.70;99.90
7846;DHT22;3968;51.424;6.788;2024-01-25T10:34:01;8.80;99.90
7846;DHT22;3968;51.424;6.788;2024-01-25T10:36:27;8.80;99.90
7846;DHT22;3968;51.424;6.788;2024-01-25T10:38:54;8.90;99.90
7846;DHT22;3968;51.424;6.788;2024-01-25T10:41:20;8.90;99.90
7846;DHT22;3968;51.424;6.788;2024-01-25T10:43:45;8.90;99.90
7846;DHT22;3968;51.424;6.788;2024-01-25T10:46:11;8.90;99.90
7846;DHT22;3968;51.424;6.788;2024-01-25T10:48:37;8.90;99.90
7846;DHT22;3968;51.424;6.788;2024-01-25T10:51:04;8.90;99.90
7846;DHT22;3968;51.424;6.788;2024-01-25T10:53:34;9.00;99.90
7846;DHT22;3968;51.424;6.788;2024-01-25T10:56:01;9.00;99.90
7846;DHT22;3968;51.424;6.788;2024-01-25T10:58:31;9.00;99.90
7846;DHT22;3968;51.424;6.788;2024-01-25T11:00:59;9.00;99.90
7846;DHT22;3968;51.424;6.788;2024-01-25T11:03:29;9.10;99.90
7846;DHT22;3968;51.424;6.788;2024-01-25T11:06:08;9.10;99.90
7846;DHT22;3968;51.424;6.788;2024-01-25T11:08:35;9.10;99.90
7846;DHT22;3968;51.424;6.788;2024-01-25T11:11:07;9.10;99.90
7846;DHT22;3968;51.424;6.788;2024-01-25T11:13:34;9.10;99.90
7846;DHT22;3968;51.424;6.788;2024-01-25T11:16:12;9.10;99.90
7846;DHT22;3968;51.424;6.788;2024-01-25T11:18:48;9.20;99.90
7846;DHT22;3968;51.424;6.788;2024-01-25T11:21:41;9.30;99.90
7846;DHT22;3968;51.424;6.788;2024-01-25T11:24:12;9.30;99.90
7846;DHT22;3968;51.424;6.788;2024-01-25T11:26:39;9.30;99.90
7846;DHT22;3968;51.424;6.788;2024-01-25T11:29:04;9.40;99.90
7846;DHT22;3968;51.424;6.788;2024-01-25T11:31:31;9.40;99.90
7846;DHT22;3968;51.424;6.788;2024-01-25T11:34:01;9.40;99.90
7846;DHT22;3968;51.424;6.788;2024-01-25T11:36:27;9.40;99.90
7846;DHT22;3968;51.424;6.788;2024-01-25T11:38:53;9.40;99.90
7846;DHT22;3968;51.424;6.788;2024-01-25T11:41:19;9.40;99.90
7846;DHT22;3968;51.424;6.788;2024-01-25T11:43:47;9.50;99.90
7846;DHT22;3968;51.424;6.788;2024-01-25T11:46:13;9.50;99.90
7846;DHT22;3968;51.424;6.788;2024-01-25T11:48:40;9.60;99.90
7846;DHT22;3968;51.424;6.788;2024-01-25T11:51:08;9.60;99.90
7846;DHT22;3968;51.424;6.788;2024-01-25T11:53:34;9.70;99.90
7846;DHT22;3968;51.424;6.788;2024-01-25T11:56:00;9.70;99.90
7846;DHT22;3968;51.424;6.788;2024-01-25T11:58:26;9.80;99.90
7846;DHT22;3968;51.424;6.788;2024-01-25T12:00:52;9.80;99.90
7846;DHT22;3968;51.424;6.788;2024-01-25T12:03:18;9.80;99.90
7846;DHT22;3968;51.424;6.788;2024-01-25T12:05:44;9.80;99.90
7846;DHT22;3968;51.424;6.788;2024-01-25T12:08:12;9.80;99.90
7846;DHT22;3968;51.424;6.788;2024-01-25T12:10:38;9.80;99.90
7846;DHT22;3968;51.424;6.788;2024-01-25T12:13:07;9.80;99.90
7846;DHT22;3968;51.424;6.788;2024-01-25T12:15:33;9.70;99.90
7846;DHT22;3968;51.424;6.788;2024-01-25T12:17:59;9.70;99.90
7846;DHT22;3968;51.424;6.788;2024-01-25T12:20:24;9.70;99.90
7846;DHT22;3968;51.424;6.788;2024-01-25T12:22:51;9.70;99.90
7846;DHT22;3968;51.424;6.788;2024-01-25T12:25:17;9.70;99.90
7846;DHT22;3968;51.424;6.788;2024-01-25T12:27:43;9.60;99.90
7846;DHT22;3968;51.424;6.788;2024-01-25T12:30:12;9.70;99.90
7846;DHT22;3968;51.424;6.788;2024-01-25T12:32:38;9.60;99.90
7846;DHT22;3968;51.424;6.788;2024-01-25T12:35:04;9.60;99.90
7846;DHT22;3968;51.424;6.788;2024-01-25T12:37:30;9.60;99.90
7846;DHT22;3968;51.424;6.788;2024-01-25T12:39:55;9.60;99.90
7846;DHT22;3968;51.424;6.788;2024-01-25T12:42:22;9.60;99.90
7846;DHT22;3968;51.424;6.788;2024-01-25T12:44:48;9.60;99.90
7846;DHT22;3968;51.424;6.788;2024-01-25T12:47:14;9.70;99.90
7846;DHT22;3968;51.424;6.788;2024-01-25T12:49:40;9.70;99.90
7846;DHT22;3968;51.424;6.788;2024-01-25T12:52:11;9.70;99.90
7846;DHT22;3968;51.424;6.788;2024-01-25T12:54:37;9.70;99.90
7846;DHT22;3968;51.424;6.788;2024-01-25T12:57:04;9.70;99.90
7846;DHT22;3968;51.424;6.788;2024-01-25T12:59:30;9.60;99.90
7846;DHT22;3968;51.424;6.788;2024-01-25T13:01:55;9.70;99.90
7846;DHT22;3968;51.424;6.788;2024-01-25T13:04:21;9.70;99.90
7846;DHT22;3968;51.424;6.788;2024-01-25T13:06:48;9.70;99.90
7846;DHT22;3968;51.424;6.788;2024-01-25T13:09:13;9.70;99.90
7846;DHT22;3968;51.424;6.788;2024-01-25T13:11:41;9.70;99.90
7846;DHT22;3968;51.424;6.788;2024-01-25T13:14:07;9.70;99.90
7846;DHT22;3968;51.424;6.788;2024-01-25T13:16:33;9.70;99.90
7846;DHT22;3968;51.424;6.788;2024-01-25T13:18:58;9.70;99.90
7846;DHT22;3968;51.424;6.788;2024-01-25T13:21:24;9.60;99.90
7846;DHT22;3968;51.424;6.788;2024-01-25T13:23:49;9.60;99.90
7846;DHT22;3968;51.424;6.788;2024-01-25T13:26:15;9.60;99.90
7846;DHT22;3968;51.424;6.788;2024-01-25T13:28:41;9.60;99.90
7846;DHT22;3968;51.424;6.788;2024-01-25T13:31:07;9.50;99.90
7846;DHT22;3968;51.424;6.788;2024-01-25T13:33:32;9.50;99.90
7846;DHT22;3968;51.424;6.788;2024-01-25T13:35:58;9.50;99.90
7846;DHT22;3968;51.424;6.788;2024-01-25T13:38:24;9.60;99.90
7846;DHT22;3968;51.424;6.788;2024-01-25T13:40:50;9.50;99.90
7846;DHT22;3968;51.424;6.788;2024-01-25T13:43:16;9.60;99.90
7846;DHT22;3968;51.424;6.788;2024-01-25T13:45:41;9.50;99.90
7846;DHT22;3968;51.424;6.788;2024-01-25T13:48:07;9.60;99.90
7846;DHT22;3968;51.424;6.788;2024-01-25T13:50:33;9.60;99.90
7846;DHT22;3968;51.424;6.788;2024-01-25T13:52:58;9.60;99.90
7846;DHT22;3968;51.424;6.788;2024-01-25T13:55:24;9.60;99.90
7846;DHT22;3968;51.424;6.788;2024-01-25T13:57:50;9.60;99.90
7846;DHT22;3968;51.424;6.788;2024-01-25T14:00:15;9.60;99.90
7846;DHT22;3968;51.424;6.788;2024-01-25T14:02:41;9.70;99.90
7846;DHT22;3968;51.424;6.788;2024-01-25T14:05:11;9.60;99.90
7846;DHT22;3968;51.424;6.788;2024-01-25T14:07:37;9.70;99.90
7846;DHT22;3968;51.424;6.788;2024-01-25T14:10:03;9.70;99.90
7846;DHT22;3968;51.424;6.788;2024-01-25T14:12:28;9.70;99.90
7846;DHT22;3968;51.424;6.788;2024-01-25T14:14:54;9.70;99.90
7846;DHT22;3968;51.424;6.788;2024-01-25T14:17:19;9.80;99.90
7846;DHT22;3968;51.424;6.788;2024-01-25T14:19:47;9.80;99.90
7846;DHT22;3968;51.424;6.788;2024-01-25T14:22:12;9.80;99.90
7846;DHT22;3968;51.424;6.788;2024-01-25T14:24:38;9.90;99.90
7846;DHT22;3968;51.424;6.788;2024-01-25T14:27:04;9.90;99.90
7846;DHT22;3968;51.424;6.788;2024-01-25T14:29:30;9.90;99.90
7846;DHT22;3968;51.424;6.788;2024-01-25T14:31:58;9.90;99.90
7846;DHT22;3968;51.424;6.788;2024-01-25T14:34:23;9.80;99.90
7846;DHT22;3968;51.424;6.788;2024-01-25T14:36:49;9.80;99.90
7846;DHT22;3968;51.424;6.788;2024-01-25T14:39:16;9.80;99.90
7846;DHT22;3968;51.424;6.788;2024-01-25T14:41:45;9.80;99.90
7846;DHT22;3968;51.424;6.788;2024-01-25T14:44:10;9.80;99.90
7846;DHT22;3968;51.424;6.788;2024-01-25T14:46:36;9.80;99.90
7846;DHT22;3968;51.424;6.788;2024-01-25T14:49:03;9.80;99.90
7846;DHT22;3968;51.424;6.788;2024-01-25T14:51:29;9.80;99.90
7846;DHT22;3968;51.424;6.788;2024-01-25T14:53:54;9.80;99.90
7846;DHT22;3968;51.424;6.788;2024-01-25T14:56:20;9.80;99.90
7846;DHT22;3968;51.424;6.788;2024-01-25T14:58:46;9.80;99.90
7846;DHT22;3968;51.424;6.788;2024-01-25T15:01:15;9.80;99.90
7846;DHT22;3968;51.424;6.788;2024-01-25T15:03:44;9.80;99.90
7846;DHT22;3968;51.424;6.788;2024-01-25T15:06:11;9.80;99.90
7846;DHT22;3968;51.424;6.788;2024-01-25T15:08:36;9.80;99.90
7846;DHT22;3968;51.424;6.788;2024-01-25T15:11:02;9.80;99.90
7846;DHT22;3968;51.424;6.788;2024-01-25T15:13:28;9.80;99.90
7846;DHT22;3968;51.424;6.788;2024-01-25T15:15:54;9.80;99.90
7846;DHT22;3968;51.424;6.788;2024-01-25T15:18:19;9.80;99.90
7846;DHT22;3968;51.424;6.788;2024-01-25T15:20:49;9.80;99.90
7846;DHT22;3968;51.424;6.788;2024-01-25T15:23:16;9.80;99.90
7846;DHT22;3968;51.424;6.788;2024-01-25T15:25:42;9.80;99.90
7846;DHT22;3968;51.424;6.788;2024-01-25T15:28:08;9.80;99.90
7846;DHT22;3968;51.424;6.788;2024-01-25T15:30:33;9.80;99.90
7846;DHT22;3968;51.424;6.788;2024-01-25T15:32:59;9.80;99.90
7846;DHT22;3968;51.424;6.788;2024-01-25T15:35:25;9.80;99.90
7846;DHT22;3968;51.424;6.788;2024-01-25T15:37:50;9.80;99.90
7846;DHT22;3968;51.424;6.788;2024-01-25T15:40:17;9.80;99.90
7846;DHT22;3968;51.424;6.788;2024-01-25T15:42:43;9.80;99.90
7846;DHT22;3968;51.424;6.788;2024-01-25T15:45:10;9.80;99.90
7846;DHT22;3968;51.424;6.788;2024-01-25T15:47:36;9.80;99.90
7846;DHT22;3968;51.424;6.788;2024-01-25T15:50:02;9.80;99.90
7846;DHT22;3968;51.424;6.788;2024-01-25T15:52:31;9.80;99.90
7846;DHT22;3968;51.424;6.788;2024-01-25T15:54:57;9.70;99.90
7846;DHT22;3968;51.424;6.788;2024-01-25T15:57:23;9.70;99.90
7846;DHT22;3968;51.424;6.788;2024-01-25T15:59:49;9.70;99.90
7846;DHT22;3968;51.424;6.788;2024-01-25T16:02:15;9.70;99.90
7846;DHT22;3968;51.424;6.788;2024-01-25T16:04:41;9.70;99.90
7846;DHT22;3968;51.424;6.788;2024-01-25T16:07:07;9.70;99.90
7846;DHT22;3968;51.424;6.788;2024-01-25T16:09:33;9.70;99.90